National Weather Service United States Department of Commerce
Click Here for Latest Airport Weather Warnings
 
Latest Huntsville TAF


000
FTUS44 KHUN 161720
TAFHSV
TAF
KHSV 161720Z 1618/1718 02005KT P6SM FEW060=

Latest Muscle Shoals TAF


000
FTUS44 KHUN 161720
TAFMSL
TAF
KMSL 161720Z 1618/1718 03005KT P6SM FEW060=


Back to Main Huntsville Weather Forecast Office Page